Time;durP1;ratioP1;P1;durP2;ratioP2;P2;SDS_P1;SDS_P2;PMS_P1;PMS_P2;Temp;Humidity;BMP_temperature;BMP_pressure;BME280_temperature;BME280_humidity;BME280_pressure;Samples;Min_cycle;Max_cycle;Signal;HPM_P1;HPM_P2
2022/01/05 00:00:17;;;;;;;4.10;2.30;;;;;;;7.92;100.00;96942.19;4804931;29;20042;-59
2022/01/05 00:02:43;;;;;;;5.17;2.00;;;;;;;7.99;100.00;96949.00;4804936;29;20034;-59
2022/01/05 00:05:09;;;;;;;3.93;2.00;;;;;;;8.03;100.00;96943.22;4804801;29;20035;-59
2022/01/05 00:07:35;;;;;;;3.93;2.00;;;;;;;7.99;100.00;96940.19;4804942;29;20027;-59
2022/01/05 00:10:01;;;;;;;3.57;2.00;;;;;;;7.93;100.00;96944.63;4804823;29;20037;-59
2022/01/05 00:12:27;;;;;;;3.43;1.90;;;;;;;7.93;100.00;96941.97;4804722;29;20478;-60
2022/01/05 00:14:53;;;;;;;3.83;1.70;;;;;;;7.91;100.00;96948.53;4804769;29;20034;-60
2022/01/05 00:17:18;;;;;;;3.20;1.60;;;;;;;7.90;100.00;96963.69;4804188;29;20121;-60
2022/01/05 00:19:44;;;;;;;3.20;1.73;;;;;;;7.76;100.00;96949.00;4804823;29;20031;-61
2022/01/05 00:22:10;;;;;;;3.50;1.83;;;;;;;7.77;100.00;96955.13;4804663;29;20477;-60
2022/01/05 00:24:36;;;;;;;2.87;1.70;;;;;;;7.78;100.00;96959.41;4818672;29;20421;-61
2022/01/05 00:27:04;;;;;;;3.83;1.90;;;;;;;7.74;100.00;96960.91;4804571;29;20114;-61
2022/01/05 00:29:30;;;;;;;2.80;1.80;;;;;;;7.78;100.00;96956.75;4804572;29;20171;-60
2022/01/05 00:31:56;;;;;;;3.30;1.90;;;;;;;7.79;100.00;96961.03;4804491;29;20649;-61
2022/01/05 00:34:21;;;;;;;3.47;1.87;;;;;;;7.81;100.00;96956.31;4804584;29;20500;-61
2022/01/05 00:36:47;;;;;;;3.83;2.07;;;;;;;7.73;100.00;96952.13;4804767;29;20046;-60
2022/01/05 00:39:12;;;;;;;4.43;2.10;;;;;;;7.72;100.00;96960.34;4804521;29;20066;-61
2022/01/05 00:41:38;;;;;;;4.37;2.03;;;;;;;7.78;100.00;96956.75;4803142;29;20499;-60
2022/01/05 00:44:04;;;;;;;3.37;1.60;;;;;;;7.90;100.00;96957.56;4804297;29;20142;-61
2022/01/05 00:46:29;;;;;;;2.70;1.70;;;;;;;7.83;100.00;96968.34;4804509;29;20039;-61
2022/01/05 00:48:55;;;;;;;2.80;1.70;;;;;;;7.87;100.00;96973.97;4803683;29;20556;-60
2022/01/05 00:51:20;;;;;;;3.00;1.50;;;;;;;7.87;100.00;96977.44;4804338;29;20038;-60
2022/01/05 00:53:46;;;;;;;3.07;1.80;;;;;;;7.85;100.00;96968.88;4804363;29;20496;-60
2022/01/05 00:56:11;;;;;;;3.57;1.80;;;;;;;7.83;100.00;96968.34;4804224;29;20038;-60
2022/01/05 00:58:37;;;;;;;2.90;1.70;;;;;;;7.84;100.00;96977.94;4804372;29;20043;-60
2022/01/05 01:01:03;;;;;;;2.17;1.40;;;;;;;7.89;100.00;96977.22;4804339;29;20039;-60
2022/01/05 01:03:28;;;;;;;2.67;1.50;;;;;;;7.87;100.00;96980.09;4804427;29;20034;-60
2022/01/05 01:06:02;;;;;;;2.73;1.60;;;;;;;7.78;100.00;96972.72;4804216;29;20035;-61
2022/01/05 01:08:28;;;;;;;2.38;1.50;;;;;;;7.79;100.00;96982.31;4804622;29;20558;-61
2022/01/05 01:10:53;;;;;;;2.03;1.20;;;;;;;7.77;100.00;96990.50;4804169;29;20105;-61
2022/01/05 01:13:20;;;;;;;2.50;1.40;;;;;;;7.78;100.00;96986.81;4804161;29;20037;-60
2022/01/05 01:15:50;;;;;;;2.03;1.20;;;;;;;7.74;100.00;96990.97;4804318;29;20039;-60
2022/01/05 01:18:16;;;;;;;1.37;0.90;;;;;;;7.79;100.00;96999.06;4804198;29;20035;-60
2022/01/05 01:20:42;;;;;;;2.93;0.90;;;;;;;7.70;100.00;96986.34;4803597;29;20027;-61
2022/01/05 01:23:09;;;;;;;1.73;1.00;;;;;;;7.76;100.00;96980.09;4804088;29;20331;-60
2022/01/05 01:25:34;;;;;;;1.70;1.10;;;;;;;7.74;100.00;96974.19;4803817;29;20043;-61
2022/01/05 01:28:00;;;;;;;2.40;1.13;;;;;;;7.82;100.00;96971.22;4804109;29;20687;-61
2022/01/05 01:30:26;;;;;;;2.43;1.20;;;;;;;7.73;100.00;96968.06;4803124;29;20053;-61
2022/01/05 01:32:51;;;;;;;1.43;1.00;;;;;;;7.71;100.00;96964.06;4804052;29;20415;-60
2022/01/05 01:35:17;;;;;;;2.03;1.30;;;;;;;7.70;100.00;96957.91;4804554;29;20516;-61
2022/01/05 01:37:42;;;;;;;1.70;1.20;;;;;;;7.69;100.00;96955.50;4821389;29;20099;-60
2022/01/05 01:40:09;;;;;;;2.23;1.30;;;;;;;7.56;100.00;96962.66;4806676;29;20117;-60
2022/01/05 01:42:35;;;;;;;2.47;1.20;;;;;;;7.55;100.00;96973.50;4807461;29;20561;-60
2022/01/05 01:45:03;;;;;;;2.27;1.30;;;;;;;7.56;100.00;96977.78;4807280;29;20318;-60
2022/01/05 01:47:28;;;;;;;3.90;1.40;;;;;;;7.51;100.00;96983.78;4807162;29;20908;-60
2022/01/05 01:49:54;;;;;;;2.37;1.40;;;;;;;7.41;100.00;96993.34;4807370;29;20353;-60
2022/01/05 01:52:19;;;;;;;2.50;1.40;;;;;;;7.41;100.00;97001.31;4806712;29;20045;-60
2022/01/05 01:54:46;;;;;;;2.93;1.60;;;;;;;7.34;100.00;97006.75;4807557;29;20166;-60
2022/01/05 01:57:12;;;;;;;3.30;1.63;;;;;;;7.34;100.00;97006.75;4807206;29;20060;-60
2022/01/05 01:59:38;;;;;;;2.70;1.57;;;;;;;7.28;100.00;97008.44;4791050;29;20266;-61
2022/01/05 02:02:04;;;;;;;2.37;1.60;;;;;;;7.33;100.00;97006.97;4807089;29;20073;-61
2022/01/05 02:04:30;;;;;;;2.87;1.50;;;;;;;7.33;100.00;97004.31;4807101;29;20031;-61
2022/01/05 02:06:55;;;;;;;2.37;1.33;;;;;;;7.39;100.00;97019.34;4807044;29;20263;-60
2022/01/05 02:09:21;;;;;;;3.73;1.63;;;;;;;7.38;100.00;97023.88;4822169;29;20034;-60
2022/01/05 02:11:46;;;;;;;2.00;1.40;;;;;;;7.35;100.00;97040.25;4824930;29;20040;-60
2022/01/05 02:14:12;;;;;;;2.47;1.40;;;;;;;7.39;100.00;97038.75;4821428;29;20105;-60
2022/01/05 02:16:42;;;;;;;2.70;1.60;;;;;;;7.28;100.00;97050.97;4806914;29;20038;-60
2022/01/05 02:19:07;;;;;;;3.67;1.90;;;;;;;7.28;100.00;97044.84;4806786;29;20031;-60
2022/01/05 02:21:38;;;;;;;3.40;1.50;;;;;;;7.36;100.00;97031.25;4806838;29;20635;-61
2022/01/05 02:24:06;;;;;;;3.00;1.37;;;;;;;7.24;100.00;97035.72;4806069;29;20490;-61
2022/01/05 02:26:32;;;;;;;2.60;1.50;;;;;;;7.23;100.00;97037.56;4806649;29;20326;-60
2022/01/05 02:28:57;;;;;;;2.40;1.50;;;;;;;7.17;100.00;97037.63;4806738;29;20637;-60
2022/01/05 02:31:23;;;;;;;2.67;1.30;;;;;;;7.11;100.00;97049.19;4806481;29;20041;-60
2022/01/05 02:33:49;;;;;;;2.43;1.30;;;;;;;7.08;100.00;97046.97;4806752;29;20043;-60
2022/01/05 02:36:18;;;;;;;2.23;1.30;;;;;;;7.05;100.00;97048.22;4806364;29;20034;-61
2022/01/05 02:38:46;;;;;;;2.23;1.33;;;;;;;7.08;100.00;97050.44;4805354;29;20793;-61
2022/01/05 02:41:12;;;;;;;1.70;1.17;;;;;;;7.07;100.00;97048.81;4806354;29;21081;-60
2022/01/05 02:43:40;;;;;;;1.80;1.20;;;;;;;7.06;100.00;97049.84;4805164;29;20303;-60
2022/01/05 02:46:10;;;;;;;1.80;1.10;;;;;;;7.00;100.00;97056.06;4806218;29;20114;-60
2022/01/05 02:48:35;;;;;;;2.10;1.17;;;;;;;6.94;100.00;97056.94;4805040;29;20318;-60
2022/01/05 02:51:01;;;;;;;2.70;1.30;;;;;;;6.94;100.00;97056.94;4806188;29;20863;-60
2022/01/05 02:53:27;;;;;;;2.17;1.20;;;;;;;6.93;100.00;97062.47;4805775;29;20039;-61
2022/01/05 02:55:53;;;;;;;2.60;1.30;;;;;;;6.89;100.00;97065.59;4806050;29;20031;-60
2022/01/05 02:58:19;;;;;;;1.97;1.10;;;;;;;6.84;100.00;97060.13;4806012;29;20091;-61
2022/01/05 03:00:45;;;;;;;1.57;1.00;;;;;;;6.76;100.00;97072.91;4806095;29;20092;-61
2022/01/05 03:03:11;;;;;;;2.17;1.10;;;;;;;6.80;100.00;97077.56;4805989;29;20274;-61
2022/01/05 03:05:36;;;;;;;3.00;1.20;;;;;;;6.72;100.00;97079.69;4806206;29;20791;-60
2022/01/05 03:08:03;;;;;;;1.90;1.20;;;;;;;6.62;100.00;97084.69;4805872;29;20027;-61
2022/01/05 03:10:28;;;;;;;1.83;1.20;;;;;;;6.57;100.00;97097.84;4805920;29;20058;-60
2022/01/05 03:12:54;;;;;;;1.63;1.00;;;;;;;6.57;100.00;97095.19;4805893;29;20302;-61
2022/01/05 03:15:19;;;;;;;2.40;1.37;;;;;;;6.56;100.00;97093.56;4805820;29;20069;-60
2022/01/05 03:17:45;;;;;;;1.57;1.00;;;;;;;6.59;100.00;97093.09;4805688;29;20083;-60
2022/01/05 03:20:12;;;;;;;1.40;0.83;;;;;;;6.56;100.00;97098.88;4805765;29;20035;-61
2022/01/05 03:22:39;;;;;;;3.03;1.10;;;;;;;6.50;100.00;97108.50;4805698;29;20489;-61
2022/01/05 03:25:06;;;;;;;0.93;0.80;;;;;;;6.50;100.00;97108.50;4805466;29;20286;-61
2022/01/05 03:27:32;;;;;;;1.63;1.03;;;;;;;6.50;100.00;97111.16;4805182;29;20877;-60
2022/01/05 03:29:57;;;;;;;1.87;1.00;;;;;;;6.43;100.00;97121.03;4805602;29;20274;-60
2022/01/05 03:32:26;;;;;;;1.53;1.07;;;;;;;6.33;100.00;97121.53;4805401;29;20969;-60
2022/01/05 03:34:52;;;;;;;1.90;1.17;;;;;;;6.30;100.00;97129.13;4805654;29;20047;-60
2022/01/05 03:37:18;;;;;;;1.60;1.00;;;;;;;6.32;100.00;97130.53;4805307;29;20769;-61
2022/01/05 03:39:43;;;;;;;1.47;1.00;;;;;;;6.32;100.00;97121.75;4805386;29;20031;-60
2022/01/05 03:42:10;;;;;;;1.60;1.10;;;;;;;6.30;100.00;97126.47;4804049;29;20113;-60
2022/01/05 03:44:35;;;;;;;1.83;1.03;;;;;;;6.31;100.00;97133.38;4805315;29;20055;-60
2022/01/05 03:47:01;;;;;;;1.30;0.90;;;;;;;6.25;100.00;97135.06;4805156;29;20666;-60
2022/01/05 03:49:27;;;;;;;2.00;1.10;;;;;;;6.09;100.00;97138.28;4805470;29;20054;-60
2022/01/05 03:51:52;;;;;;;1.53;0.90;;;;;;;6.06;100.00;97130.75;4805322;29;20042;-60
2022/01/05 03:54:18;;;;;;;2.30;1.00;;;;;;;6.11;100.00;97130.91;4805217;29;20039;-60
2022/01/05 03:56:44;;;;;;;1.63;1.03;;;;;;;6.07;100.00;97130.53;4804865;29;20434;-61
2022/01/05 03:59:10;;;;;;;2.27;1.20;;;;;;;6.01;100.00;97128.72;4804593;29;20314;-60
2022/01/05 04:01:36;;;;;;;1.30;0.80;;;;;;;6.03;100.00;97129.34;4805286;29;20117;-61
2022/01/05 04:04:02;;;;;;;1.43;0.93;;;;;;;5.94;100.00;97127.97;4805038;29;20278;-60
2022/01/05 04:06:27;;;;;;;1.33;0.70;;;;;;;5.97;100.00;97119.59;4804817;29;20092;-60
2022/01/05 04:08:53;;;;;;;1.30;0.80;;;;;;;5.92;100.00;97132.69;4804805;29;20031;-60
2022/01/05 04:11:18;;;;;;;1.20;0.77;;;;;;;5.84;100.00;97140.88;4804782;29;20118;-60
2022/01/05 04:13:44;;;;;;;0.90;0.80;;;;;;;5.81;100.00;97142.13;4804767;29;20386;-60
2022/01/05 04:16:09;;;;;;;1.07;0.87;;;;;;;5.83;100.00;97140.06;4804732;29;20034;-61
2022/01/05 04:18:35;;;;;;;2.23;0.80;;;;;;;5.90;100.00;97141.88;4804587;29;20031;-60
2022/01/05 04:21:00;;;;;;;1.27;0.93;;;;;;;5.81;100.00;97144.75;4804761;29;20031;-60
2022/01/05 04:23:26;;;;;;;0.87;0.70;;;;;;;5.70;100.00;97155.25;4804547;29;20446;-61
2022/01/05 04:25:51;;;;;;;1.43;0.80;;;;;;;5.68;100.00;97149.34;4804527;29;20031;-61
2022/01/05 04:28:17;;;;;;;1.73;0.80;;;;;;;5.68;100.00;97144.84;4803931;29;20046;-61
2022/01/05 04:30:42;;;;;;;1.70;0.80;;;;;;;5.72;100.00;97151.34;4804556;29;20038;-60
2022/01/05 04:33:08;;;;;;;1.03;0.73;;;;;;;5.81;100.00;97154.56;4804458;29;20035;-60
2022/01/05 04:35:33;;;;;;;0.97;0.80;;;;;;;5.74;100.00;97157.25;4804542;29;20026;-60
2022/01/05 04:37:59;;;;;;;1.60;1.03;;;;;;;5.67;100.00;97168.91;4804425;29;20057;-61
2022/01/05 04:40:24;;;;;;;2.20;0.90;;;;;;;5.57;100.00;97164.06;4804344;29;20110;-60
2022/01/05 04:42:50;;;;;;;1.23;0.70;;;;;;;5.64;100.00;97166.72;4804459;29;20035;-61
2022/01/05 04:45:15;;;;;;;1.10;0.70;;;;;;;5.62;100.00;97166.09;4804308;29;20031;-61
2022/01/05 04:47:41;;;;;;;0.90;0.80;;;;;;;5.65;100.00;97161.19;4804118;29;20051;-61
2022/01/05 04:50:07;;;;;;;1.50;1.00;;;;;;;5.59;100.00;97169.16;4804205;29;20031;-60
2022/01/05 04:52:33;;;;;;;1.03;0.93;;;;;;;5.51;100.00;97174.72;4804382;29;20034;-61
2022/01/05 04:54:58;;;;;;;1.90;1.00;;;;;;;5.58;100.00;97183.44;4804373;29;20274;-61
2022/01/05 04:57:24;;;;;;;1.40;0.90;;;;;;;5.66;100.00;97188.47;4804451;29;20030;-60
2022/01/05 04:59:49;;;;;;;1.27;0.90;;;;;;;5.69;100.00;97188.06;4803958;29;20037;-60
2022/01/05 05:02:15;;;;;;;1.10;0.90;;;;;;;5.52;100.00;97197.53;4802959;29;20034;-60
2022/01/05 05:04:41;;;;;;;2.50;1.10;;;;;;;5.59;100.00;97191.19;4804280;29;20512;-61
2022/01/05 05:07:07;;;;;;;1.43;1.00;;;;;;;5.42;100.00;97204.09;4804164;29;20278;-61
2022/01/05 05:09:33;;;;;;;2.33;1.10;;;;;;;5.41;100.00;97202.47;4802992;29;20034;-60
2022/01/05 05:11:59;;;;;;;2.40;1.23;;;;;;;5.44;100.00;97210.00;4807082;29;20038;-60
2022/01/05 05:14:24;;;;;;;1.50;1.10;;;;;;;5.50;100.00;97211.00;4806515;29;20270;-60
2022/01/05 05:16:50;;;;;;;1.83;1.10;;;;;;;5.41;100.00;97217.56;4807715;29;20080;-60
2022/01/05 05:19:15;;;;;;;2.30;1.30;;;;;;;5.34;100.00;97222.06;4807667;29;20034;-60
2022/01/05 05:21:41;;;;;;;2.60;1.60;;;;;;;5.28;100.00;97221.06;4807701;29;20034;-60
2022/01/05 05:24:06;;;;;;;3.10;1.60;;;;;;;5.24;100.00;97235.75;4807674;29;20026;-60
2022/01/05 05:26:32;;;;;;;4.13;1.30;;;;;;;5.22;100.00;97242.25;4807563;29;20027;-60
2022/01/05 05:28:58;;;;;;;2.37;1.43;;;;;;;5.24;100.00;97243.69;4807537;29;20046;-60
2022/01/05 05:31:23;;;;;;;3.30;1.60;;;;;;;5.19;100.00;97240.88;4807056;29;20274;-60
2022/01/05 05:33:49;;;;;;;3.80;1.70;;;;;;;5.13;100.00;97241.69;4807603;29;20546;-60
2022/01/05 05:36:14;;;;;;;2.77;1.77;;;;;;;5.10;100.00;97245.56;4807615;29;20034;-60
2022/01/05 05:38:40;;;;;;;2.60;1.60;;;;;;;5.14;100.00;97247.78;4807558;29;20035;-61
2022/01/05 05:41:05;;;;;;;3.50;1.97;;;;;;;5.08;100.00;97249.44;4807668;29;20026;-60
2022/01/05 05:43:31;;;;;;;3.77;2.10;;;;;;;5.03;100.00;97254.53;4807428;29;20093;-60
2022/01/05 05:45:57;;;;;;;3.80;2.00;;;;;;;5.03;100.00;97267.78;4807133;29;20122;-60
2022/01/05 05:48:22;;;;;;;3.93;2.30;;;;;;;4.96;100.00;97261.69;4806990;29;20065;-60
2022/01/05 05:50:48;;;;;;;3.63;2.00;;;;;;;4.92;100.00;97256.00;4807377;29;20041;-60
2022/01/05 05:53:14;;;;;;;3.90;2.10;;;;;;;4.89;100.00;97260.88;4807556;29;20378;-60
2022/01/05 05:55:39;;;;;;;3.97;2.40;;;;;;;4.83;100.00;97264.38;4807623;29;20493;-60
2022/01/05 05:58:05;;;;;;;3.83;2.30;;;;;;;4.82;100.00;97266.19;4807220;29;20303;-60
2022/01/05 06:00:31;;;;;;;3.67;2.17;;;;;;;4.77;100.00;97265.16;4807263;29;20034;-60
2022/01/05 06:02:58;;;;;;;3.00;1.80;;;;;;;4.71;100.00;97266.81;4806627;29;20035;-60
2022/01/05 06:05:23;;;;;;;3.40;2.03;;;;;;;4.74;100.00;97267.19;4806966;29;20031;-60
2022/01/05 06:07:52;;;;;;;3.60;2.10;;;;;;;4.74;100.00;97261.09;4806889;29;20277;-60
2022/01/05 06:10:17;;;;;;;4.60;2.10;;;;;;;4.76;100.00;97261.72;4806874;29;20027;-60
2022/01/05 06:12:43;;;;;;;4.73;2.37;;;;;;;4.71;100.00;97270.28;4807978;29;20279;-60
2022/01/05 06:15:09;;;;;;;4.20;2.10;;;;;;;4.67;100.00;97278.81;4824889;29;20027;-60
2022/01/05 06:17:36;;;;;;;4.03;2.17;;;;;;;4.68;100.00;97275.16;4824847;29;20030;-60
2022/01/05 06:20:04;;;;;;;3.23;1.80;;;;;;;4.67;100.00;97281.47;4823649;29;20302;-60
2022/01/05 06:22:30;;;;;;;2.90;1.73;;;;;;;4.67;100.00;97278.81;4809338;29;20808;-61
2022/01/05 06:24:56;;;;;;;3.80;1.97;;;;;;;4.55;100.00;97283.91;4806557;29;20287;-60
2022/01/05 06:27:21;;;;;;;3.13;1.70;;;;;;;4.53;100.00;97285.94;4806813;29;20098;-60
2022/01/05 06:29:47;;;;;;;3.10;1.93;;;;;;;4.57;100.00;97289.00;4806676;29;20041;-60
2022/01/05 06:32:12;;;;;;;3.87;2.33;;;;;;;4.59;100.00;97287.78;4806463;29;20497;-60
2022/01/05 06:34:38;;;;;;;3.90;2.57;;;;;;;4.44;100.00;97286.34;4806033;29;20110;-60
2022/01/05 06:37:03;;;;;;;3.90;2.37;;;;;;;4.42;100.00;97291.00;4806412;29;20035;-62
2022/01/05 06:39:29;;;;;;;9.60;5.70;;;;;;;4.40;100.00;97283.28;4805489;29;20110;-61
2022/01/05 06:41:55;;;;;;;3.70;2.30;;;;;;;4.35;100.00;97297.13;4806922;29;20786;-62
2022/01/05 06:44:20;;;;;;;4.00;2.33;;;;;;;4.29;100.00;97292.63;4824069;29;20045;-61
2022/01/05 06:46:46;;;;;;;4.43;2.40;;;;;;;4.24;100.00;97302.19;4824347;29;20558;-61
2022/01/05 06:49:12;;;;;;;3.60;2.30;;;;;;;4.27;100.00;97302.59;4823851;29;20145;-61
2022/01/05 06:51:37;;;;;;;4.13;2.43;;;;;;;4.27;100.00;97307.88;4824311;29;20072;-61
2022/01/05 06:54:03;;;;;;;4.83;2.40;;;;;;;4.21;100.00;97310.53;4824129;29;20042;-62
2022/01/05 06:56:28;;;;;;;6.83;3.63;;;;;;;4.18;100.00;97310.91;4824125;29;20117;-62
2022/01/05 06:58:54;;;;;;;4.90;2.07;;;;;;;4.06;100.00;97321.25;4824041;29;20031;-61
2022/01/05 07:01:19;;;;;;;3.73;1.97;;;;;;;3.99;100.00;97325.72;4824083;29;20042;-61
2022/01/05 07:03:45;;;;;;;3.13;1.93;;;;;;;3.99;100.00;97328.34;4824083;29;20031;-61
2022/01/05 07:06:10;;;;;;;4.43;1.90;;;;;;;3.97;100.00;97343.59;4809835;29;20035;-61
2022/01/05 07:08:36;;;;;;;2.90;1.80;;;;;;;3.97;100.00;97347.06;4805784;29;20110;-61
2022/01/05 07:11:02;;;;;;;3.20;1.90;;;;;;;4.05;100.00;97350.53;4805902;29;20100;-62
2022/01/05 07:13:27;;;;;;;2.60;1.60;;;;;;;3.99;100.00;97352.97;4805724;29;20041;-62
2022/01/05 07:15:53;;;;;;;3.37;1.90;;;;;;;3.98;100.00;97355.78;4805804;29;20389;-61
2022/01/05 07:18:18;;;;;;;2.73;1.60;;;;;;;4.00;100.00;97354.59;4805619;29;20453;-61
2022/01/05 07:20:45;;;;;;;3.10;1.60;;;;;;;3.87;100.00;97364.28;4805708;29;20079;-61
2022/01/05 07:23:10;;;;;;;3.13;1.60;;;;;;;3.85;100.00;97361.84;4805785;29;20033;-61
2022/01/05 07:25:36;;;;;;;2.40;1.60;;;;;;;3.90;100.00;97372.66;4805538;29;20671;-60
2022/01/05 07:28:02;;;;;;;2.27;1.50;;;;;;;3.83;100.00;97371.78;4819408;29;20034;-61
2022/01/05 07:30:27;;;;;;;4.17;1.80;;;;;;;3.79;100.00;97373.22;4805527;29;20700;-61
2022/01/05 07:32:53;;;;;;;2.60;1.50;;;;;;;3.81;100.00;97378.28;4805145;29;20027;-61
2022/01/05 07:35:18;;;;;;;3.10;1.53;;;;;;;3.69;100.00;97377.22;4805440;29;20034;-61
2022/01/05 07:37:44;;;;;;;3.63;1.60;;;;;;;3.81;100.00;97387.00;4804829;29;20031;-63
2022/01/05 07:40:10;;;;;;;2.83;1.60;;;;;;;3.71;100.00;97385.75;4805389;29;20035;-61
2022/01/05 07:42:36;;;;;;;3.20;1.90;;;;;;;3.79;100.00;97380.31;4805385;29;20401;-62
2022/01/05 07:45:04;;;;;;;3.37;1.60;;;;;;;3.52;100.00;97387.28;4805380;29;20282;-62
2022/01/05 07:47:29;;;;;;;2.30;1.50;;;;;;;3.67;100.00;97392.44;4805040;29;20055;-63
2022/01/05 07:49:55;;;;;;;2.60;1.70;;;;;;;3.58;100.00;97387.31;4805221;29;20277;-61
2022/01/05 07:52:20;;;;;;;3.90;2.00;;;;;;;3.64;100.00;97401.56;4805133;29;20549;-62
2022/01/05 07:54:46;;;;;;;3.93;1.97;;;;;;;3.53;100.00;97400.28;4805097;29;20496;-61
2022/01/05 07:57:11;;;;;;;4.03;2.10;;;;;;;3.62;100.00;97396.47;4805133;29;20030;-62
2022/01/05 07:59:37;;;;;;;4.27;2.07;;;;;;;3.52;100.00;97416.34;4805017;29;20507;-61
2022/01/05 08:02:03;;;;;;;4.37;2.60;;;;;;;3.56;100.00;97418.41;4804826;29;20819;-60
2022/01/05 08:04:28;;;;;;;6.40;3.50;;;;;;;3.59;100.00;97423.28;4804712;29;20039;-60
2022/01/05 08:06:57;;;;;;;9.10;4.53;;;;;;;3.52;100.00;97411.88;4804627;29;20037;-60
2022/01/05 08:09:22;;;;;;;9.40;5.00;;;;;;;3.61;100.00;97410.69;4804077;29;20042;-62
2022/01/05 08:11:48;;;;;;;4.07;2.40;;;;;;;3.64;100.00;97404.22;4804752;29;20271;-62
2022/01/05 08:14:13;;;;;;;7.57;4.00;;;;;;;3.71;100.00;97414.81;4804764;29;20062;-61
2022/01/05 08:16:39;;;;;;;4.50;2.73;;;;;;;3.59;100.00;97415.34;4804330;29;20390;-60
2022/01/05 08:19:05;;;;;;;8.37;3.73;;;;;;;4.11;100.00;97415.81;4804487;29;20600;-61
2022/01/05 08:21:30;;;;;;;8.43;4.33;;;;;;;3.97;100.00;97422.88;4803667;29;20039;-62
2022/01/05 08:23:56;;;;;;;6.27;3.80;;;;;;;3.79;100.00;97420.75;4804355;29;20038;-62
2022/01/05 08:26:22;;;;;;;6.53;3.47;;;;;;;3.79;100.00;97425.22;4804337;29;20035;-61
2022/01/05 08:28:48;;;;;;;5.50;3.70;;;;;;;3.74;100.00;97428.44;4804393;29;20041;-60
2022/01/05 08:31:14;;;;;;;7.33;4.77;;;;;;;3.69;100.00;97430.06;4788184;29;20358;-62
2022/01/05 08:33:39;;;;;;;6.40;4.10;;;;;;;3.78;100.00;97424.41;4804572;29;20118;-60
2022/01/05 08:36:05;;;;;;;10.07;6.63;;;;;;;3.75;100.00;97424.78;4804469;29;20031;-60
2022/01/05 08:38:32;;;;;;;9.83;5.27;;;;;;;3.77;100.00;97425.44;4804653;29;20469;-61
2022/01/05 08:40:57;;;;;;;7.37;4.83;;;;;;;3.78;100.00;97421.78;4803643;29;20818;-60
2022/01/05 08:43:23;;;;;;;7.10;4.20;;;;;;;3.71;100.00;97426.19;4804546;29;20274;-59
2022/01/05 08:45:49;;;;;;;7.50;4.13;;;;;;;3.81;100.00;97415.25;4798304;29;20043;-60
2022/01/05 08:48:15;;;;;;;5.23;3.30;;;;;;;3.78;100.00;97428.88;4820504;29;20118;-60
2022/01/05 08:50:40;;;;;;;5.30;3.60;;;;;;;3.86;100.00;97423.44;4809955;29;20481;-60
2022/01/05 08:53:07;;;;;;;7.10;4.90;;;;;;;3.75;100.00;97422.16;4807212;29;20262;-59
2022/01/05 08:55:38;;;;;;;5.40;3.87;;;;;;;3.77;100.00;97430.72;4814360;29;20381;-59
2022/01/05 08:58:04;;;;;;;5.37;3.10;;;;;;;3.75;100.00;97423.97;4804503;29;20262;-60
2022/01/05 09:00:32;;;;;;;3.70;2.10;;;;;;;3.68;100.00;97426.59;4801470;29;20267;-59
2022/01/05 09:02:57;;;;;;;4.10;2.60;;;;;;;3.79;100.00;97425.22;4794130;29;20279;-59
2022/01/05 09:05:23;;;;;;;3.80;2.40;;;;;;;3.80;100.00;97427.69;4798590;29;20298;-59
2022/01/05 09:07:48;;;;;;;2.83;1.90;;;;;;;3.84;100.00;97436.00;4804040;29;20168;-59
2022/01/05 09:10:14;;;;;;;3.20;1.90;;;;;;;3.82;100.00;97436.22;4804014;29;20038;-60
2022/01/05 09:12:39;;;;;;;3.60;2.37;;;;;;;3.86;100.00;97439.28;4801768;29;20042;-59
2022/01/05 09:15:05;;;;;;;4.03;2.30;;;;;;;3.95;100.00;97432.81;4800966;29;20489;-59
2022/01/05 09:17:31;;;;;;;3.57;2.40;;;;;;;3.96;100.00;97437.91;4799264;29;20027;-60
2022/01/05 09:19:57;;;;;;;5.27;2.50;;;;;;;4.02;100.00;97438.16;4804045;29;20300;-60
2022/01/05 09:22:23;;;;;;;3.87;2.10;;;;;;;4.02;100.00;97446.91;4803894;29;20034;-65
2022/01/05 09:24:52;;;;;;;4.60;2.30;;;;;;;3.89;100.00;97445.00;4804948;29;20038;-60
2022/01/05 09:27:18;;;;;;;3.60;2.40;;;;;;;4.09;100.00;97450.38;4815356;29;20273;-60
2022/01/05 09:29:44;;;;;;;3.43;2.30;;;;;;;4.04;100.00;97452.78;4804132;29;20336;-60
2022/01/05 09:32:09;;;;;;;4.87;2.60;;;;;;;4.14;100.00;97458.53;4803899;29;20027;-60
2022/01/05 09:34:37;;;;;;;3.63;2.50;;;;;;;4.17;100.00;97457.31;4805192;29;20035;-60
2022/01/05 09:43:04;;;;;;;3.88;2.50;;;;;;;4.21;100.00;97456.75;4712422;30;20270;-59
2022/01/05 09:45:32;;;;;;;5.23;2.83;;;;;;;4.27;100.00;97455.94;4713022;30;20037;-59
2022/01/05 09:48:16;;;;;;;4.67;2.83;;;;;;;4.28;100.00;97456.75;4747874;30;20302;-59
2022/01/05 09:51:03;;;;;;;4.65;2.90;;;;;;;4.21;100.00;97456.75;4783711;30;20275;-60
2022/01/05 09:53:30;;;;;;;4.13;2.70;;;;;;;4.24;100.00;97463.47;4783653;30;20039;-60
2022/01/05 09:55:56;;;;;;;4.97;3.00;;;;;;;4.31;100.00;97475.69;4774220;30;20292;-59
2022/01/05 09:58:23;;;;;;;4.40;2.80;;;;;;;4.38;100.00;97463.28;4754088;30;20356;-59
2022/01/05 10:00:50;;;;;;;5.37;2.83;;;;;;;4.29;100.00;97459.19;4768912;30;20308;-60
2022/01/05 10:03:17;;;;;;;4.60;2.40;;;;;;;4.36;100.00;97461.88;4769097;30;20406;-60
2022/01/05 10:05:43;;;;;;;4.03;2.40;;;;;;;4.32;100.00;97465.94;4768835;30;20370;-60
2022/01/05 10:08:10;;;;;;;4.13;2.63;;;;;;;4.34;100.00;97464.72;4769022;30;20280;-59
2022/01/05 10:10:35;;;;;;;4.67;2.60;;;;;;;4.36;100.00;97467.19;4768737;30;20291;-60
2022/01/05 10:13:01;;;;;;;4.23;2.70;;;;;;;4.26;100.00;97467.56;4768781;30;20332;-60
2022/01/05 10:15:27;;;;;;;4.57;2.57;;;;;;;4.41;100.00;97464.72;4783714;29;20164;-60
2022/01/05 10:18:12;;;;;;;3.73;2.40;;;;;;;4.44;100.00;97464.34;4806622;29;20478;-60
2022/01/05 10:20:54;;;;;;;4.53;2.80;;;;;;;4.35;100.00;97465.53;4805371;29;20121;-60
2022/01/05 10:23:45;;;;;;;5.53;2.93;;;;;;;4.49;100.00;97469.06;4821569;29;20621;-60
2022/01/05 10:26:28;;;;;;;4.43;2.87;;;;;;;4.52;100.00;97461.50;4815182;29;20378;-60
2022/01/05 10:29:03;;;;;;;4.10;2.27;;;;;;;4.54;100.00;97469.25;4806020;29;20266;-60
2022/01/05 10:31:37;;;;;;;4.03;2.50;;;;;;;4.55;100.00;97462.94;4806520;29;20266;-60
2022/01/05 10:34:32;;;;;;;4.20;2.50;;;;;;;4.47;100.00;97465.78;4806602;29;20307;-59
2022/01/05 10:37:00;;;;;;;4.37;2.10;;;;;;;4.67;100.00;97456.88;4802052;29;20297;-59
2022/01/05 10:39:42;;;;;;;6.00;2.30;;;;;;;4.57;100.00;97450.34;4806120;29;20273;-59
2022/01/05 10:42:13;;;;;;;3.63;2.13;;;;;;;4.56;100.00;97457.47;4806468;29;20283;-59
2022/01/05 10:44:44;;;;;;;18.00;6.33;;;;;;;4.66;100.00;97465.03;4806223;29;20283;-60
2022/01/05 10:47:10;;;;;;;9.43;3.80;;;;;;;4.55;100.00;97465.59;4805486;29;20844;-61
2022/01/05 10:49:40;;;;;;;7.73;3.23;;;;;;;4.64;100.00;97461.75;4806156;29;20266;-63
2022/01/05 10:52:26;;;;;;;10.63;5.50;;;;;;;4.61;100.00;97467.47;4806381;29;20397;-61
2022/01/05 10:54:53;;;;;;;6.37;3.60;;;;;;;4.72;100.00;97459.75;4806144;29;20290;-61
2022/01/05 10:57:19;;;;;;;7.43;3.63;;;;;;;4.70;100.00;97460.97;4808752;29;20270;-61
2022/01/05 10:59:46;;;;;;;17.47;7.90;;;;;;;4.80;100.00;97471.16;4815756;29;20350;-61
2022/01/05 11:02:32;;;;;;;12.73;5.40;;;;;;;4.77;100.00;97464.44;4805521;29;20302;-60
2022/01/05 11:05:07;;;;;;;7.37;3.00;;;;;;;4.74;100.00;97472.75;4810691;29;20293;-61
2022/01/05 11:07:36;;;;;;;5.93;2.77;;;;;;;4.74;100.00;97476.22;4812980;29;20765;-61
2022/01/05 11:10:09;;;;;;;5.23;3.00;;;;;;;4.77;100.00;97471.56;4811488;29;20357;-62
2022/01/05 11:12:42;;;;;;;6.68;3.83;;;;;;;4.84;100.00;97478.50;4815491;29;20283;-61
2022/01/05 11:15:22;;;;;;;4.00;2.40;;;;;;;4.90;100.00;97483.00;4805481;29;20142;-60
2022/01/05 11:18:08;;;;;;;5.43;1.80;;;;;;;4.98;100.00;97476.69;4804927;29;20038;-60
2022/01/05 11:20:55;;;;;;;3.60;2.00;;;;;;;4.97;100.00;97477.69;4792442;29;20259;-60
2022/01/05 11:23:25;;;;;;;5.00;2.50;;;;;;;5.04;100.00;97476.72;4791479;29;20294;-62
2022/01/05 11:25:53;;;;;;;4.40;2.47;;;;;;;5.05;100.00;97473.06;4805248;29;20286;-64
2022/01/05 11:28:20;;;;;;;3.00;1.90;;;;;;;5.02;100.00;97478.75;4807211;29;20311;-61
2022/01/05 11:30:47;;;;;;;7.20;2.30;;;;;;;5.10;100.00;97475.88;4805073;29;20278;-61
2022/01/05 11:33:13;;;;;;;3.67;2.10;;;;;;;5.15;100.00;97487.72;4805230;29;20400;-61
2022/01/05 11:35:40;;;;;;;3.40;2.00;;;;;;;5.17;100.00;97490.97;4810631;29;20695;-63
2022/01/05 11:38:05;;;;;;;3.53;2.00;;;;;;;5.07;100.00;97492.19;4816649;29;20592;-62